sensor_id;sensor_type;location;lat;lon;timestamp;P1;durP1;ratioP1;P2;durP2;ratioP2
57233;SDS011;43090;52.604;13.318;2022-11-02T00:08:51;14.65;;;7.80;;
57233;SDS011;43090;52.604;13.318;2022-11-02T00:20:04;15.68;;;8.10;;
57233;SDS011;43090;52.604;13.318;2022-11-02T00:22:31;17.58;;;7.95;;
57233;SDS011;43090;52.604;13.318;2022-11-02T00:24:59;27.60;;;8.38;;
57233;SDS011;43090;52.604;13.318;2022-11-02T00:27:29;15.77;;;7.25;;
57233;SDS011;43090;52.604;13.318;2022-11-02T00:29:58;22.13;;;8.10;;
57233;SDS011;43090;52.604;13.318;2022-11-02T00:32:26;16.33;;;7.32;;
57233;SDS011;43090;52.604;13.318;2022-11-02T00:37:19;14.15;;;7.03;;
57233;SDS011;43090;52.604;13.318;2022-11-02T00:39:45;11.55;;;6.85;;
57233;SDS011;43090;52.604;13.318;2022-11-02T00:42:12;12.05;;;7.18;;
57233;SDS011;43090;52.604;13.318;2022-11-02T00:44:38;15.52;;;6.85;;
57233;SDS011;43090;52.604;13.318;2022-11-02T00:47:07;14.35;;;7.88;;
57233;SDS011;43090;52.604;13.318;2022-11-02T00:49:37;18.42;;;7.47;;
57233;SDS011;43090;52.604;13.318;2022-11-02T00:52:03;19.33;;;7.55;;
57233;SDS011;43090;52.604;13.318;2022-11-02T00:54:31;12.50;;;7.35;;
57233;SDS011;43090;52.604;13.318;2022-11-02T00:56:57;13.75;;;7.88;;
57233;SDS011;43090;52.604;13.318;2022-11-02T00:59:24;13.80;;;7.07;;
57233;SDS011;43090;52.604;13.318;2022-11-02T01:01:50;15.95;;;7.53;;
57233;SDS011;43090;52.604;13.318;2022-11-02T01:04:17;12.18;;;7.15;;
57233;SDS011;43090;52.604;13.318;2022-11-02T01:06:43;15.98;;;6.85;;
57233;SDS011;43090;52.604;13.318;2022-11-02T01:09:12;17.98;;;7.50;;
57233;SDS011;43090;52.604;13.318;2022-11-02T01:11:39;13.60;;;7.00;;
57233;SDS011;43090;52.604;13.318;2022-11-02T01:14:07;14.40;;;6.20;;
57233;SDS011;43090;52.604;13.318;2022-11-02T01:16:34;19.58;;;7.85;;
57233;SDS011;43090;52.604;13.318;2022-11-02T01:19:01;13.98;;;7.32;;
57233;SDS011;43090;52.604;13.318;2022-11-02T01:23:54;22.77;;;7.85;;
57233;SDS011;43090;52.604;13.318;2022-11-02T01:26:21;16.50;;;7.63;;
57233;SDS011;43090;52.604;13.318;2022-11-02T01:28:47;15.30;;;7.45;;
57233;SDS011;43090;52.604;13.318;2022-11-02T01:31:14;17.25;;;6.80;;
57233;SDS011;43090;52.604;13.318;2022-11-02T01:33:44;20.45;;;7.45;;
57233;SDS011;43090;52.604;13.318;2022-11-02T01:36:12;12.57;;;6.32;;
57233;SDS011;43090;52.604;13.318;2022-11-02T01:38:40;12.48;;;6.55;;
57233;SDS011;43090;52.604;13.318;2022-11-02T01:41:07;16.60;;;6.40;;
57233;SDS011;43090;52.604;13.318;2022-11-02T01:43:35;12.35;;;6.63;;
57233;SDS011;43090;52.604;13.318;2022-11-02T01:46:07;14.32;;;6.82;;
57233;SDS011;43090;52.604;13.318;2022-11-02T01:51:44;13.98;;;7.05;;
57233;SDS011;43090;52.604;13.318;2022-11-02T01:54:15;23.70;;;7.15;;
57233;SDS011;43090;52.604;13.318;2022-11-02T01:56:49;15.93;;;7.53;;
57233;SDS011;43090;52.604;13.318;2022-11-02T01:59:20;12.27;;;6.60;;
57233;SDS011;43090;52.604;13.318;2022-11-02T02:01:58;12.02;;;6.50;;
57233;SDS011;43090;52.604;13.318;2022-11-02T02:04:25;10.48;;;5.80;;
57233;SDS011;43090;52.604;13.318;2022-11-02T02:06:53;13.75;;;6.15;;
57233;SDS011;43090;52.604;13.318;2022-11-02T02:09:23;14.48;;;6.78;;
57233;SDS011;43090;52.604;13.318;2022-11-02T02:11:51;13.85;;;6.85;;
57233;SDS011;43090;52.604;13.318;2022-11-02T02:14:18;10.30;;;6.05;;
57233;SDS011;43090;52.604;13.318;2022-11-02T02:19:54;13.63;;;6.25;;
57233;SDS011;43090;52.604;13.318;2022-11-02T02:22:35;13.70;;;6.57;;
57233;SDS011;43090;52.604;13.318;2022-11-02T02:30:55;16.95;;;6.50;;
57233;SDS011;43090;52.604;13.318;2022-11-02T02:36:20;14.63;;;7.00;;
57233;SDS011;43090;52.604;13.318;2022-11-02T02:41:36;16.15;;;7.97;;
57233;SDS011;43090;52.604;13.318;2022-11-02T02:44:09;12.30;;;6.88;;
57233;SDS011;43090;52.604;13.318;2022-11-02T02:49:43;17.23;;;6.68;;
57233;SDS011;43090;52.604;13.318;2022-11-02T02:52:18;12.95;;;6.28;;
57233;SDS011;43090;52.604;13.318;2022-11-02T02:54:46;15.95;;;6.80;;
57233;SDS011;43090;52.604;13.318;2022-11-02T02:57:16;17.15;;;6.47;;
57233;SDS011;43090;52.604;13.318;2022-11-02T02:59:46;11.70;;;6.07;;
57233;SDS011;43090;52.604;13.318;2022-11-02T03:04:58;16.15;;;5.72;;
57233;SDS011;43090;52.604;13.318;2022-11-02T03:07:26;12.15;;;6.32;;
57233;SDS011;43090;52.604;13.318;2022-11-02T03:10:09;16.35;;;5.68;;
57233;SDS011;43090;52.604;13.318;2022-11-02T03:12:49;15.75;;;5.57;;
57233;SDS011;43090;52.604;13.318;2022-11-02T03:18:35;8.23;;;5.22;;
57233;SDS011;43090;52.604;13.318;2022-11-02T03:21:27;14.13;;;5.50;;
57233;SDS011;43090;52.604;13.318;2022-11-02T03:26:50;12.25;;;5.05;;
57233;SDS011;43090;52.604;13.318;2022-11-02T03:29:41;15.57;;;5.00;;
57233;SDS011;43090;52.604;13.318;2022-11-02T03:32:25;8.80;;;4.68;;
57233;SDS011;43090;52.604;13.318;2022-11-02T03:35:05;8.57;;;4.90;;
57233;SDS011;43090;52.604;13.318;2022-11-02T03:37:42;17.20;;;4.38;;
57233;SDS011;43090;52.604;13.318;2022-11-02T03:40:31;10.93;;;4.45;;
57233;SDS011;43090;52.604;13.318;2022-11-02T03:43:03;10.60;;;4.93;;
57233;SDS011;43090;52.604;13.318;2022-11-02T03:45:34;9.18;;;4.57;;
57233;SDS011;43090;52.604;13.318;2022-11-02T03:48:05;8.40;;;4.45;;
57233;SDS011;43090;52.604;13.318;2022-11-02T03:50:33;11.52;;;4.72;;
57233;SDS011;43090;52.604;13.318;2022-11-02T03:53:05;10.70;;;4.45;;
57233;SDS011;43090;52.604;13.318;2022-11-02T03:55:39;8.38;;;4.38;;
57233;SDS011;43090;52.604;13.318;2022-11-02T03:58:10;7.20;;;4.30;;
57233;SDS011;43090;52.604;13.318;2022-11-02T04:00:41;6.15;;;3.90;;
57233;SDS011;43090;52.604;13.318;2022-11-02T04:03:12;9.80;;;4.28;;
57233;SDS011;43090;52.604;13.318;2022-11-02T04:05:39;7.88;;;4.05;;
57233;SDS011;43090;52.604;13.318;2022-11-02T04:08:05;7.10;;;3.83;;
57233;SDS011;43090;52.604;13.318;2022-11-02T04:10:46;11.60;;;3.75;;
57233;SDS011;43090;52.604;13.318;2022-11-02T04:13:32;8.65;;;3.83;;
57233;SDS011;43090;52.604;13.318;2022-11-02T04:16:18;14.27;;;3.05;;
57233;SDS011;43090;52.604;13.318;2022-11-02T04:18:53;8.73;;;3.65;;
57233;SDS011;43090;52.604;13.318;2022-11-02T04:21:38;6.55;;;3.33;;
57233;SDS011;43090;52.604;13.318;2022-11-02T04:24:04;13.27;;;3.30;;
57233;SDS011;43090;52.604;13.318;2022-11-02T04:26:50;8.18;;;3.70;;
57233;SDS011;43090;52.604;13.318;2022-11-02T04:29:16;4.95;;;3.10;;
57233;SDS011;43090;52.604;13.318;2022-11-02T04:31:43;6.70;;;2.88;;
57233;SDS011;43090;52.604;13.318;2022-11-02T04:34:09;10.10;;;3.65;;
57233;SDS011;43090;52.604;13.318;2022-11-02T04:36:36;10.32;;;3.03;;
57233;SDS011;43090;52.604;13.318;2022-11-02T04:39:02;10.73;;;3.45;;
57233;SDS011;43090;52.604;13.318;2022-11-02T04:41:29;9.63;;;3.22;;
57233;SDS011;43090;52.604;13.318;2022-11-02T04:44:11;7.20;;;3.10;;
57233;SDS011;43090;52.604;13.318;2022-11-02T04:46:40;12.15;;;3.33;;
57233;SDS011;43090;52.604;13.318;2022-11-02T04:49:08;13.35;;;2.92;;
57233;SDS011;43090;52.604;13.318;2022-11-02T04:51:35;10.75;;;3.22;;
57233;SDS011;43090;52.604;13.318;2022-11-02T04:54:02;13.43;;;3.03;;
57233;SDS011;43090;52.604;13.318;2022-11-02T04:56:29;4.82;;;2.42;;
57233;SDS011;43090;52.604;13.318;2022-11-02T04:58:56;6.18;;;3.03;;
57233;SDS011;43090;52.604;13.318;2022-11-02T05:01:57;5.03;;;2.20;;
57233;SDS011;43090;52.604;13.318;2022-11-02T05:07:18;10.45;;;2.58;;
57233;SDS011;43090;52.604;13.318;2022-11-02T05:13:30;10.27;;;2.88;;
57233;SDS011;43090;52.604;13.318;2022-11-02T05:18:24;5.55;;;2.30;;
57233;SDS011;43090;52.604;13.318;2022-11-02T05:20:54;8.27;;;2.90;;
57233;SDS011;43090;52.604;13.318;2022-11-02T05:23:22;6.93;;;2.28;;
57233;SDS011;43090;52.604;13.318;2022-11-02T05:28:18;10.57;;;2.20;;
57233;SDS011;43090;52.604;13.318;2022-11-02T05:33:12;9.00;;;2.50;;
57233;SDS011;43090;52.604;13.318;2022-11-02T05:35:38;10.63;;;2.85;;
57233;SDS011;43090;52.604;13.318;2022-11-02T05:40:31;6.35;;;2.50;;
57233;SDS011;43090;52.604;13.318;2022-11-02T05:42:59;10.32;;;2.90;;
57233;SDS011;43090;52.604;13.318;2022-11-02T05:45:26;12.25;;;2.63;;
57233;SDS011;43090;52.604;13.318;2022-11-02T05:47:53;9.38;;;2.70;;
57233;SDS011;43090;52.604;13.318;2022-11-02T05:50:20;11.55;;;2.58;;
57233;SDS011;43090;52.604;13.318;2022-11-02T05:52:46;6.63;;;2.17;;
57233;SDS011;43090;52.604;13.318;2022-11-02T05:55:13;11.95;;;3.13;;
57233;SDS011;43090;52.604;13.318;2022-11-02T05:57:39;6.00;;;2.25;;
57233;SDS011;43090;52.604;13.318;2022-11-02T06:00:06;13.20;;;2.20;;
57233;SDS011;43090;52.604;13.318;2022-11-02T06:02:33;11.70;;;2.10;;
57233;SDS011;43090;52.604;13.318;2022-11-02T06:05:00;13.75;;;2.30;;
57233;SDS011;43090;52.604;13.318;2022-11-02T06:07:26;5.45;;;2.08;;
57233;SDS011;43090;52.604;13.318;2022-11-02T06:09:55;7.07;;;2.85;;
57233;SDS011;43090;52.604;13.318;2022-11-02T06:12:25;7.32;;;2.25;;
57233;SDS011;43090;52.604;13.318;2022-11-02T06:15:17;13.57;;;2.08;;
57233;SDS011;43090;52.604;13.318;2022-11-02T06:17:53;7.63;;;2.60;;
57233;SDS011;43090;52.604;13.318;2022-11-02T06:20:20;13.60;;;4.00;;
57233;SDS011;43090;52.604;13.318;2022-11-02T06:22:56;9.23;;;2.47;;
57233;SDS011;43090;52.604;13.318;2022-11-02T06:25:25;8.00;;;2.20;;
57233;SDS011;43090;52.604;13.318;2022-11-02T06:27:54;3.60;;;2.08;;
57233;SDS011;43090;52.604;13.318;2022-11-02T06:30:32;6.88;;;2.15;;
57233;SDS011;43090;52.604;13.318;2022-11-02T06:33:00;13.10;;;3.40;;
57233;SDS011;43090;52.604;13.318;2022-11-02T06:35:32;9.45;;;2.75;;
57233;SDS011;43090;52.604;13.318;2022-11-02T06:38:22;12.57;;;2.25;;
57233;SDS011;43090;52.604;13.318;2022-11-02T06:45:48;10.25;;;2.83;;
57233;SDS011;43090;52.604;13.318;2022-11-02T06:48:25;15.07;;;2.90;;
57233;SDS011;43090;52.604;13.318;2022-11-02T06:51:00;15.10;;;2.58;;
57233;SDS011;43090;52.604;13.318;2022-11-02T06:53:36;11.65;;;3.08;;
57233;SDS011;43090;52.604;13.318;2022-11-02T07:00:44;14.90;;;2.70;;
57233;SDS011;43090;52.604;13.318;2022-11-02T07:03:33;10.57;;;2.47;;
57233;SDS011;43090;52.604;13.318;2022-11-02T07:06:00;15.88;;;3.25;;
57233;SDS011;43090;52.604;13.318;2022-11-02T07:08:27;15.32;;;2.50;;
57233;SDS011;43090;52.604;13.318;2022-11-02T07:11:00;15.90;;;2.97;;
57233;SDS011;43090;52.604;13.318;2022-11-02T07:13:46;14.13;;;3.45;;
57233;SDS011;43090;52.604;13.318;2022-11-02T07:17:18;9.38;;;2.28;;
57233;SDS011;43090;52.604;13.318;2022-11-02T08:00:17;16.90;;;2.75;;
57233;SDS011;43090;52.604;13.318;2022-11-02T08:15:51;9.45;;;2.08;;
57233;SDS011;43090;52.604;13.318;2022-11-02T08:53:44;15.82;;;2.70;;
57233;SDS011;43090;52.604;13.318;2022-11-02T09:34:04;12.52;;;2.38;;
57233;SDS011;43090;52.604;13.318;2022-11-02T09:44:20;16.50;;;2.20;;
57233;SDS011;43090;52.604;13.318;2022-11-02T09:46:53;10.88;;;2.58;;
57233;SDS011;43090;52.604;13.318;2022-11-02T09:59:56;18.73;;;2.38;;
57233;SDS011;43090;52.604;13.318;2022-11-02T10:02:49;14.35;;;1.90;;
57233;SDS011;43090;52.604;13.318;2022-11-02T10:05:28;22.52;;;3.00;;
57233;SDS011;43090;52.604;13.318;2022-11-02T10:53:18;14.80;;;2.67;;
57233;SDS011;43090;52.604;13.318;2022-11-02T11:22:39;12.38;;;1.77;;
57233;SDS011;43090;52.604;13.318;2022-11-02T13:02:30;7.10;;;1.02;;
57233;SDS011;43090;52.604;13.318;2022-11-02T13:44:47;8.88;;;1.48;;
57233;SDS011;43090;52.604;13.318;2022-11-02T13:54:41;9.65;;;1.77;;
57233;SDS011;43090;52.604;13.318;2022-11-02T18:12:13;10.63;;;2.15;;
57233;SDS011;43090;52.604;13.318;2022-11-02T23:53:46;11.05;;;5.28;;
